ANZ946 NZAA-NCRG
Flight info
| Callsign | ANZ946 |
|---|---|
| Flight time | 3h 22m |
| Altitude | 35000 |
| Route | AKLOM G594 BIXIT ANIVA1A |
| Aircraft | B77W/H-SDE1E2E3FGHIJ2J3J4J5M1RWXYZ/LB1D1 |
Departure
| Time | 2026-04-21 17:20 |
|---|---|
| Airport | Auckland International Airport (NZAA) |
Arrival
| Time | 2026-04-21 20:43 |
|---|---|
| Airport | Rarotonga International Airport (NCRG) |
| Time | Latitude | Longitude | Altitude | Speed | Heading |
|---|---|---|---|---|---|
| 2026-04-21 16:28 | -37.00763 | 174.78278 | 30 ft | 0 kts | 298° |
| 2026-04-21 17:09 | -37.00768 | 174.78289 | 30 ft | 3 kts | 296° |
| 2026-04-21 17:09 | -37.00776 | 174.78312 | 29 ft | 3 kts | 291° |
| 2026-04-21 17:09 | -37.00782 | 174.78331 | 28 ft | 1 kts | 294° |
| 2026-04-21 17:10 | -37.00787 | 174.78347 | 28 ft | 3 kts | 267° |
| 2026-04-21 17:10 | -37.00782 | 174.78366 | 27 ft | 3 kts | 216° |
| 2026-04-21 17:10 | -37.00764 | 174.78377 | 28 ft | 3 kts | 197° |
| 2026-04-21 17:10 | -37.00745 | 174.78383 | 29 ft | 3 kts | 187° |
| 2026-04-21 17:11 | -37.00734 | 174.78385 | 30 ft | 1 kts | 185° |
| 2026-04-21 17:11 | -37.00732 | 174.78385 | 30 ft | 0 kts | 185° |
| 2026-04-21 17:13 | -37.00748 | 174.78383 | 30 ft | 7 kts | 185° |
| 2026-04-21 17:13 | -37.00803 | 174.78377 | 30 ft | 8 kts | 185° |
| 2026-04-21 17:14 | -37.00857 | 174.78370 | 30 ft | 8 kts | 186° |
| 2026-04-21 17:14 | -37.00912 | 174.78364 | 30 ft | 9 kts | 185° |
| 2026-04-21 17:14 | -37.00982 | 174.78371 | 30 ft | 10 kts | 162° |
| 2026-04-21 17:14 | -37.01043 | 174.78416 | 30 ft | 10 kts | 121° |
| 2026-04-21 17:15 | -37.01044 | 174.78504 | 30 ft | 11 kts | 81° |
| 2026-04-21 17:15 | -37.01022 | 174.78591 | 30 ft | 11 kts | 70° |
| 2026-04-21 17:15 | -37.00996 | 174.78682 | 30 ft | 13 kts | 71° |
| 2026-04-21 17:15 | -37.00958 | 174.78821 | 30 ft | 18 kts | 71° |
| 2026-04-21 17:16 | -37.00917 | 174.78970 | 30 ft | 18 kts | 71° |
| 2026-04-21 17:16 | -37.00875 | 174.79120 | 30 ft | 18 kts | 71° |
| 2026-04-21 17:16 | -37.00834 | 174.79269 | 30 ft | 18 kts | 71° |
| 2026-04-21 17:16 | -37.00793 | 174.79419 | 30 ft | 18 kts | 71° |
| 2026-04-21 17:17 | -37.00752 | 174.79568 | 30 ft | 18 kts | 71° |
| 2026-04-21 17:17 | -37.00711 | 174.79718 | 30 ft | 18 kts | 71° |
| 2026-04-21 17:17 | -37.00669 | 174.79867 | 30 ft | 18 kts | 70° |
| 2026-04-21 17:17 | -37.00627 | 174.80016 | 30 ft | 18 kts | 71° |
| 2026-04-21 17:18 | -37.00586 | 174.80166 | 30 ft | 18 kts | 71° |
| 2026-04-21 17:18 | -37.00546 | 174.80315 | 30 ft | 16 kts | 71° |
| 2026-04-21 17:18 | -37.00548 | 174.80423 | 30 ft | 13 kts | 128° |
| 2026-04-21 17:18 | -37.00607 | 174.80507 | 30 ft | 11 kts | 131° |
| 2026-04-21 17:19 | -37.00667 | 174.80535 | 30 ft | 9 kts | 212° |
| 2026-04-21 17:19 | -37.00695 | 174.80467 | 30 ft | 9 kts | 250° |
| 2026-04-21 17:19 | -37.00743 | 174.80297 | 30 ft | 40 kts | 251° |
| 2026-04-21 17:19 | -37.00920 | 174.79656 | 30 ft | 114 kts | 251° |
| 2026-04-21 17:20 | -37.01253 | 174.78457 | 32 ft | 174 kts | 251° |
| 2026-04-21 17:20 | -37.01660 | 174.76910 | 392 ft | 189 kts | 250° |
| 2026-04-21 17:20 | -37.02069 | 174.75349 | 1140 ft | 189 kts | 247° |
| 2026-04-21 17:20 | -37.02522 | 174.73749 | 1589 ft | 207 kts | 246° |
| 2026-04-21 17:21 | -37.03039 | 174.71934 | 1799 ft | 235 kts | 247° |
| 2026-04-21 17:21 | -37.03604 | 174.69927 | 2317 ft | 249 kts | 247° |
| 2026-04-21 17:21 | -37.04188 | 174.67836 | 3025 ft | 259 kts | 246° |
| 2026-04-21 17:21 | -37.04792 | 174.65673 | 3756 ft | 267 kts | 247° |
| 2026-04-21 17:22 | -37.05201 | 174.64205 | 4236 ft | 271 kts | 248° |
| 2026-04-21 17:22 | -37.06042 | 174.61182 | 5293 ft | 275 kts | 248° |
| 2026-04-21 17:22 | -37.06718 | 174.58960 | 6145 ft | 271 kts | 239° |
| 2026-04-21 17:22 | -37.07924 | 174.57179 | 6852 ft | 268 kts | 214° |
| 2026-04-21 17:23 | -37.09536 | 174.56097 | 7684 ft | 260 kts | 201° |
| 2026-04-21 17:23 | -37.11128 | 174.55053 | 8360 ft | 259 kts | 205° |
| 2026-04-21 17:23 | -37.12848 | 174.54520 | 8955 ft | 260 kts | 173° |
| 2026-04-21 17:23 | -37.14546 | 174.55273 | 9596 ft | 265 kts | 150° |
| 2026-04-21 17:24 | -37.15866 | 174.56915 | 10186 ft | 278 kts | 124° |
| 2026-04-21 17:24 | -37.16505 | 174.59307 | 10416 ft | 308 kts | 98° |
| 2026-04-21 17:24 | -37.16159 | 174.62069 | 10604 ft | 338 kts | 69° |
| 2026-04-21 17:24 | -37.15065 | 174.64779 | 10775 ft | 360 kts | 64° |
| 2026-04-21 17:25 | -37.13787 | 174.67589 | 11123 ft | 379 kts | 62° |
| 2026-04-21 17:25 | -37.12438 | 174.70463 | 11845 ft | 387 kts | 60° |
| 2026-04-21 17:25 | -37.11058 | 174.73379 | 12731 ft | 392 kts | 60° |
| 2026-04-21 17:25 | -37.09662 | 174.76344 | 13601 ft | 398 kts | 60° |
| 2026-04-21 17:26 | -37.08258 | 174.79356 | 14402 ft | 403 kts | 60° |
| 2026-04-21 17:26 | -37.06849 | 174.82406 | 15229 ft | 407 kts | 60° |
| 2026-04-21 17:26 | -37.05426 | 174.85507 | 16054 ft | 412 kts | 60° |
| 2026-04-21 17:26 | -37.03996 | 174.88635 | 16894 ft | 417 kts | 60° |
| 2026-04-21 17:27 | -37.02548 | 174.91811 | 17721 ft | 422 kts | 60° |
| 2026-04-21 17:27 | -37.01085 | 174.95021 | 18498 ft | 427 kts | 60° |
| 2026-04-21 17:27 | -36.99608 | 174.98262 | 19243 ft | 431 kts | 60° |
| 2026-04-21 17:27 | -36.98116 | 175.01533 | 20003 ft | 434 kts | 60° |
| 2026-04-21 17:28 | -36.96615 | 175.04820 | 20750 ft | 437 kts | 60° |
| 2026-04-21 17:28 | -36.95091 | 175.08153 | 21333 ft | 445 kts | 60° |
| 2026-04-21 17:28 | -36.93547 | 175.11526 | 22027 ft | 449 kts | 60° |
| 2026-04-21 17:28 | -36.91993 | 175.14916 | 22762 ft | 452 kts | 60° |
| 2026-04-21 17:29 | -36.90425 | 175.18336 | 23422 ft | 457 kts | 60° |
| 2026-04-21 17:29 | -36.88838 | 175.21792 | 23974 ft | 460 kts | 59° |
| 2026-04-21 17:29 | -36.87237 | 175.25276 | 24498 ft | 465 kts | 59° |
| 2026-04-21 17:29 | -36.85620 | 175.28788 | 25033 ft | 468 kts | 59° |
| 2026-04-21 17:30 | -36.83991 | 175.32325 | 25586 ft | 471 kts | 59° |
| 2026-04-21 17:30 | -36.82354 | 175.35873 | 26131 ft | 474 kts | 59° |
| 2026-04-21 17:30 | -36.80705 | 175.39445 | 26658 ft | 476 kts | 59° |
| 2026-04-21 17:30 | -36.79043 | 175.43040 | 27166 ft | 480 kts | 59° |
| 2026-04-21 17:31 | -36.77366 | 175.46665 | 27563 ft | 485 kts | 59° |
| 2026-04-21 17:31 | -36.75672 | 175.50321 | 27996 ft | 489 kts | 59° |
| 2026-04-21 17:31 | -36.73967 | 175.53998 | 28472 ft | 491 kts | 59° |
| 2026-04-21 17:31 | -36.72253 | 175.57692 | 28939 ft | 493 kts | 59° |
| 2026-04-21 17:32 | -36.71115 | 175.60142 | 29221 ft | 495 kts | 59° |
| 2026-04-21 17:32 | -36.68799 | 175.65121 | 29760 ft | 498 kts | 59° |
| 2026-04-21 17:32 | -36.67062 | 175.68850 | 30188 ft | 498 kts | 58° |
| 2026-04-21 17:32 | -36.65345 | 175.72533 | 30484 ft | 500 kts | 58° |
| 2026-04-21 17:33 | -36.63593 | 175.76285 | 30795 ft | 502 kts | 57° |
| 2026-04-21 17:33 | -36.61836 | 175.80045 | 31173 ft | 502 kts | 57° |
| 2026-04-21 17:33 | -36.60073 | 175.83816 | 31450 ft | 506 kts | 56° |
| 2026-04-21 17:33 | -36.58297 | 175.87606 | 31704 ft | 508 kts | 56° |
| 2026-04-21 17:34 | -36.56515 | 175.91404 | 32059 ft | 509 kts | 56° |
| 2026-04-21 17:34 | -36.54730 | 175.95205 | 32444 ft | 508 kts | 55° |
| 2026-04-21 17:34 | -36.52945 | 175.99003 | 32797 ft | 509 kts | 55° |
| 2026-04-21 17:34 | -36.51160 | 176.02799 | 33118 ft | 510 kts | 55° |
| 2026-04-21 17:35 | -36.49366 | 176.06607 | 33441 ft | 511 kts | 54° |
| 2026-04-21 17:35 | -36.47572 | 176.10412 | 33779 ft | 511 kts | 54° |
| 2026-04-21 17:35 | -36.45773 | 176.14223 | 34066 ft | 511 kts | 54° |
| 2026-04-21 17:35 | -36.43973 | 176.18032 | 34308 ft | 512 kts | 53° |
| 2026-04-21 17:36 | -36.40322 | 176.25732 | 34458 ft | 522 kts | 52° |
| 2026-04-21 17:36 | -36.38478 | 176.29618 | 34749 ft | 521 kts | 52° |
| 2026-04-21 17:36 | -36.36633 | 176.33506 | 34834 ft | 525 kts | 52° |
| 2026-04-21 17:37 | -36.32932 | 176.41297 | 34854 ft | 521 kts | 52° |
| 2026-04-21 17:37 | -36.29272 | 176.48989 | 34863 ft | 517 kts | 52° |
| 2026-04-21 17:38 | -36.25614 | 176.56640 | 34864 ft | 516 kts | 51° |
| 2026-04-21 17:38 | -36.21949 | 176.64287 | 34856 ft | 516 kts | 51° |
| 2026-04-21 17:39 | -36.18899 | 176.70641 | 34848 ft | 517 kts | 51° |
| 2026-04-21 17:39 | -36.14620 | 176.79533 | 34862 ft | 518 kts | 51° |
| 2026-04-21 17:40 | -36.11522 | 176.85957 | 34863 ft | 520 kts | 51° |
| 2026-04-21 17:40 | -36.07207 | 176.94889 | 34833 ft | 521 kts | 50° |
| 2026-04-21 17:41 | -36.04087 | 177.01333 | 34848 ft | 522 kts | 49° |
| 2026-04-21 17:41 | -36.00348 | 177.09037 | 34860 ft | 523 kts | 49° |
| 2026-04-21 17:42 | -35.96597 | 177.16748 | 34855 ft | 524 kts | 49° |
| 2026-04-21 17:42 | -35.92837 | 177.24464 | 34855 ft | 524 kts | 49° |
| 2026-04-21 17:43 | -35.89074 | 177.32167 | 34849 ft | 524 kts | 49° |
| 2026-04-21 17:43 | -35.85307 | 177.39863 | 34842 ft | 524 kts | 48° |
| 2026-04-21 17:44 | -35.81537 | 177.47542 | 34852 ft | 524 kts | 48° |
| 2026-04-21 17:44 | -35.77756 | 177.55228 | 34853 ft | 524 kts | 48° |
| 2026-04-21 17:45 | -35.73969 | 177.62908 | 34848 ft | 525 kts | 48° |
| 2026-04-21 17:45 | -35.70178 | 177.70584 | 34849 ft | 524 kts | 47° |
| 2026-04-21 17:46 | -35.66381 | 177.78250 | 34843 ft | 525 kts | 46° |
| 2026-04-21 17:46 | -35.62575 | 177.85915 | 34856 ft | 526 kts | 46° |
| 2026-04-21 17:47 | -35.58776 | 177.93552 | 34850 ft | 527 kts | 46° |
| 2026-04-21 17:47 | -35.54944 | 178.01240 | 34851 ft | 528 kts | 46° |
| 2026-04-21 17:48 | -35.51102 | 178.08932 | 34845 ft | 528 kts | 46° |
| 2026-04-21 17:48 | -35.47261 | 178.16606 | 34813 ft | 528 kts | 45° |
| 2026-04-21 17:49 | -35.43417 | 178.24266 | 34845 ft | 527 kts | 45° |
| 2026-04-21 17:49 | -35.39568 | 178.31919 | 34851 ft | 528 kts | 45° |
| 2026-04-21 17:50 | -35.35711 | 178.39575 | 34849 ft | 528 kts | 45° |
| 2026-04-21 17:50 | -35.31908 | 178.47287 | 34823 ft | 530 kts | 46° |
| 2026-04-21 17:51 | -35.28151 | 178.55047 | 34846 ft | 530 kts | 45° |
| 2026-04-21 17:51 | -35.24389 | 178.62795 | 34851 ft | 530 kts | 45° |
| 2026-04-21 17:52 | -35.20613 | 178.70524 | 34847 ft | 529 kts | 45° |
| 2026-04-21 17:52 | -35.16826 | 178.78240 | 34863 ft | 529 kts | 45° |
| 2026-04-21 17:53 | -35.13034 | 178.85945 | 34811 ft | 530 kts | 44° |
| 2026-04-21 17:53 | -35.09233 | 178.93657 | 34849 ft | 530 kts | 44° |
| 2026-04-21 17:54 | -35.05429 | 179.01359 | 34856 ft | 530 kts | 44° |
| 2026-04-21 17:54 | -35.01641 | 179.09014 | 34856 ft | 530 kts | 44° |
| 2026-04-21 17:55 | -34.97823 | 179.16712 | 34812 ft | 530 kts | 44° |
| 2026-04-21 17:55 | -34.93983 | 179.24440 | 34825 ft | 529 kts | 44° |
| 2026-04-21 17:56 | -34.90167 | 179.32099 | 34851 ft | 529 kts | 44° |
| 2026-04-21 17:56 | -34.86370 | 179.39699 | 34856 ft | 529 kts | 44° |
| 2026-04-21 17:57 | -34.82541 | 179.47350 | 34861 ft | 529 kts | 44° |
| 2026-04-21 17:57 | -34.78704 | 179.54999 | 34858 ft | 529 kts | 44° |
| 2026-04-21 17:58 | -34.74868 | 179.62633 | 34835 ft | 529 kts | 44° |
| 2026-04-21 17:58 | -34.71029 | 179.70260 | 34840 ft | 528 kts | 43° |
| 2026-04-21 17:59 | -34.67195 | 179.77855 | 34853 ft | 527 kts | 43° |
| 2026-04-21 17:59 | -34.63353 | 179.85447 | 34858 ft | 527 kts | 43° |
| 2026-04-21 18:00 | -34.59508 | 179.93030 | 34868 ft | 527 kts | 43° |
| 2026-04-21 18:00 | -34.55661 | -179.99398 | 34855 ft | 527 kts | 43° |
| 2026-04-21 18:01 | -34.51809 | -179.91831 | 34866 ft | 527 kts | 42° |
| 2026-04-21 18:01 | -34.47951 | -179.84271 | 34870 ft | 527 kts | 42° |
| 2026-04-21 18:02 | -34.44089 | -179.76716 | 34865 ft | 527 kts | 41° |
| 2026-04-21 18:02 | -34.40230 | -179.69188 | 34869 ft | 527 kts | 41° |
| 2026-04-21 18:03 | -34.36360 | -179.61653 | 34869 ft | 527 kts | 41° |
| 2026-04-21 18:03 | -34.32479 | -179.54110 | 34869 ft | 527 kts | 41° |
| 2026-04-21 18:04 | -34.28600 | -179.46587 | 34871 ft | 527 kts | 41° |
| 2026-04-21 18:04 | -34.24714 | -179.39066 | 34871 ft | 527 kts | 41° |
| 2026-04-21 18:05 | -34.20823 | -179.31552 | 34813 ft | 527 kts | 41° |
| 2026-04-21 18:05 | -34.16942 | -179.24066 | 34866 ft | 525 kts | 40° |
| 2026-04-21 18:06 | -34.13065 | -179.16610 | 34869 ft | 524 kts | 40° |
| 2026-04-21 18:06 | -34.09177 | -179.09155 | 34880 ft | 524 kts | 40° |
| 2026-04-21 18:07 | -34.05285 | -179.01706 | 34878 ft | 525 kts | 40° |
| 2026-04-21 18:07 | -34.01387 | -178.94259 | 34876 ft | 525 kts | 40° |
| 2026-04-21 18:08 | -33.97485 | -178.86816 | 34882 ft | 526 kts | 40° |
| 2026-04-21 18:08 | -33.93582 | -178.79384 | 34849 ft | 525 kts | 40° |
| 2026-04-21 18:09 | -33.89680 | -178.71968 | 34875 ft | 524 kts | 40° |
| 2026-04-21 18:09 | -33.85789 | -178.64597 | 34885 ft | 524 kts | 40° |
| 2026-04-21 18:10 | -33.81873 | -178.57193 | 34886 ft | 525 kts | 40° |
| 2026-04-21 18:10 | -33.77952 | -178.49791 | 34888 ft | 525 kts | 40° |
| 2026-04-21 18:11 | -33.74027 | -178.42395 | 34880 ft | 524 kts | 40° |
| 2026-04-21 18:11 | -33.70107 | -178.35023 | 34886 ft | 524 kts | 40° |
| 2026-04-21 18:12 | -33.66181 | -178.27660 | 34857 ft | 523 kts | 40° |
| 2026-04-21 18:12 | -33.62257 | -178.20311 | 34884 ft | 523 kts | 40° |
| 2026-04-21 18:13 | -33.58328 | -178.12971 | 34894 ft | 523 kts | 40° |
| 2026-04-21 18:13 | -33.54396 | -178.05641 | 34877 ft | 522 kts | 40° |
| 2026-04-21 18:14 | -33.48489 | -177.94654 | 34894 ft | 523 kts | 40° |
| 2026-04-21 18:15 | -33.44540 | -177.87328 | 34901 ft | 524 kts | 40° |
| 2026-04-21 18:15 | -33.40580 | -177.79996 | 34898 ft | 525 kts | 40° |
| 2026-04-21 18:16 | -33.36617 | -177.72669 | 34901 ft | 525 kts | 40° |
| 2026-04-21 18:16 | -33.32646 | -177.65344 | 34898 ft | 525 kts | 40° |
| 2026-04-21 18:17 | -33.28668 | -177.58021 | 34904 ft | 525 kts | 40° |
| 2026-04-21 18:17 | -33.24686 | -177.50706 | 34905 ft | 525 kts | 40° |
| 2026-04-21 18:18 | -33.20696 | -177.43391 | 34908 ft | 525 kts | 40° |
| 2026-04-21 18:18 | -33.16731 | -177.36134 | 34910 ft | 525 kts | 40° |
| 2026-04-21 18:19 | -33.12737 | -177.28841 | 34842 ft | 524 kts | 41° |
| 2026-04-21 18:19 | -33.08758 | -177.21580 | 34904 ft | 522 kts | 41° |
| 2026-04-21 18:20 | -33.04776 | -177.14337 | 34911 ft | 522 kts | 41° |
| 2026-04-21 18:20 | -33.00794 | -177.07110 | 34915 ft | 522 kts | 41° |
| 2026-04-21 18:21 | -32.96809 | -176.99893 | 34917 ft | 521 kts | 41° |
| 2026-04-21 18:21 | -32.92819 | -176.92677 | 34887 ft | 521 kts | 41° |
| 2026-04-21 18:22 | -32.88837 | -176.85488 | 34918 ft | 521 kts | 41° |
| 2026-04-21 18:22 | -32.84846 | -176.78301 | 34925 ft | 521 kts | 40° |
| 2026-04-21 18:23 | -32.80853 | -176.71119 | 34916 ft | 520 kts | 41° |
| 2026-04-21 18:23 | -32.76857 | -176.63949 | 34924 ft | 520 kts | 41° |
| 2026-04-21 18:24 | -32.72854 | -176.56780 | 34928 ft | 520 kts | 41° |
| 2026-04-21 18:24 | -32.68878 | -176.49673 | 34923 ft | 520 kts | 41° |
| 2026-04-21 18:25 | -32.64871 | -176.42523 | 34930 ft | 520 kts | 41° |
| 2026-04-21 18:25 | -32.60857 | -176.35374 | 34929 ft | 521 kts | 41° |
| 2026-04-21 18:26 | -32.56836 | -176.28227 | 34932 ft | 521 kts | 41° |
| 2026-04-21 18:26 | -32.52814 | -176.21091 | 34927 ft | 520 kts | 42° |
| 2026-04-21 18:27 | -32.48788 | -176.13962 | 34923 ft | 520 kts | 42° |
| 2026-04-21 18:27 | -32.44754 | -176.06834 | 34935 ft | 522 kts | 42° |
| 2026-04-21 18:28 | -32.41392 | -176.00903 | 34945 ft | 523 kts | 42° |
| 2026-04-21 18:28 | -32.37333 | -175.93754 | 34941 ft | 524 kts | 42° |
| 2026-04-21 18:29 | -32.33268 | -175.86607 | 34937 ft | 524 kts | 42° |
| 2026-04-21 18:29 | -32.29192 | -175.79453 | 34939 ft | 525 kts | 42° |
| 2026-04-21 18:30 | -32.25113 | -175.72309 | 34933 ft | 524 kts | 43° |
| 2026-04-21 18:30 | -32.21032 | -175.65173 | 34946 ft | 524 kts | 43° |
| 2026-04-21 18:31 | -32.16943 | -175.58040 | 34952 ft | 525 kts | 43° |
| 2026-04-21 18:31 | -32.12846 | -175.50906 | 34949 ft | 525 kts | 43° |
| 2026-04-21 18:32 | -32.08743 | -175.43772 | 34951 ft | 525 kts | 43° |
| 2026-04-21 18:32 | -32.04638 | -175.36648 | 34950 ft | 525 kts | 43° |
| 2026-04-21 18:33 | -32.00524 | -175.29524 | 34956 ft | 526 kts | 43° |
| 2026-04-21 18:33 | -31.96401 | -175.22397 | 34950 ft | 526 kts | 43° |
| 2026-04-21 18:34 | -31.92271 | -175.15270 | 34956 ft | 527 kts | 43° |
| 2026-04-21 18:34 | -31.88137 | -175.08148 | 34960 ft | 527 kts | 43° |
| 2026-04-21 18:35 | -31.84695 | -175.02228 | 34944 ft | 527 kts | 43° |
| 2026-04-21 18:35 | -31.79851 | -174.93918 | 34962 ft | 527 kts | 43° |
| 2026-04-21 18:36 | -31.75697 | -174.86812 | 34963 ft | 527 kts | 43° |
| 2026-04-21 18:36 | -31.71544 | -174.79716 | 34965 ft | 527 kts | 43° |
| 2026-04-21 18:37 | -31.67416 | -174.72675 | 34948 ft | 526 kts | 43° |
| 2026-04-21 18:37 | -31.63268 | -174.65608 | 34941 ft | 526 kts | 44° |
| 2026-04-21 18:38 | -31.59116 | -174.58552 | 34969 ft | 526 kts | 43° |
| 2026-04-21 18:38 | -31.54956 | -174.51496 | 34975 ft | 526 kts | 43° |
| 2026-04-21 18:39 | -31.50789 | -174.44440 | 34978 ft | 527 kts | 43° |
| 2026-04-21 18:39 | -31.46613 | -174.37380 | 34979 ft | 527 kts | 43° |
| 2026-04-21 18:40 | -31.42430 | -174.30320 | 34981 ft | 527 kts | 43° |
| 2026-04-21 18:40 | -31.38922 | -174.24412 | 34950 ft | 527 kts | 44° |
| 2026-04-21 18:41 | -31.34061 | -174.16235 | 34978 ft | 527 kts | 44° |
| 2026-04-21 18:41 | -31.29873 | -174.09207 | 34985 ft | 527 kts | 44° |
| 2026-04-21 18:42 | -31.25678 | -174.02180 | 34989 ft | 527 kts | 44° |
| 2026-04-21 18:42 | -31.21479 | -173.95159 | 34987 ft | 527 kts | 44° |
| 2026-04-21 18:43 | -31.17277 | -173.88144 | 34972 ft | 527 kts | 44° |
| 2026-04-21 18:43 | -31.13067 | -173.81130 | 34998 ft | 527 kts | 44° |
| 2026-04-21 18:44 | -31.08851 | -173.74117 | 34954 ft | 528 kts | 44° |
| 2026-04-21 18:44 | -31.04632 | -173.67111 | 34987 ft | 528 kts | 44° |
| 2026-04-21 18:45 | -31.00402 | -173.60102 | 34999 ft | 529 kts | 44° |
| 2026-04-21 18:45 | -30.96166 | -173.53094 | 34975 ft | 529 kts | 44° |
| 2026-04-21 18:46 | -30.91921 | -173.46085 | 34997 ft | 530 kts | 44° |
| 2026-04-21 18:46 | -30.87666 | -173.39071 | 35008 ft | 531 kts | 44° |
| 2026-04-21 18:47 | -30.83423 | -173.32090 | 35001 ft | 532 kts | 44° |
| 2026-04-21 18:47 | -30.79147 | -173.25064 | 35006 ft | 532 kts | 44° |
| 2026-04-21 18:48 | -30.74865 | -173.18041 | 35011 ft | 532 kts | 45° |
| 2026-04-21 18:48 | -30.70582 | -173.11029 | 35008 ft | 532 kts | 45° |
| 2026-04-21 18:49 | -30.66292 | -173.04020 | 35010 ft | 533 kts | 45° |
| 2026-04-21 18:49 | -30.62687 | -172.98140 | 35008 ft | 533 kts | 45° |
| 2026-04-21 18:50 | -30.57685 | -172.89995 | 35008 ft | 533 kts | 44° |
| 2026-04-21 18:50 | -30.53373 | -172.82986 | 35011 ft | 533 kts | 44° |
| 2026-04-21 18:51 | -30.49061 | -172.75988 | 34993 ft | 533 kts | 45° |
| 2026-04-21 18:51 | -30.44748 | -172.69001 | 35008 ft | 532 kts | 45° |
| 2026-04-21 18:52 | -30.40438 | -172.62033 | 35015 ft | 532 kts | 44° |
| 2026-04-21 18:52 | -30.36122 | -172.55067 | 35013 ft | 532 kts | 44° |
| 2026-04-21 18:53 | -30.31807 | -172.48115 | 35010 ft | 532 kts | 44° |
| 2026-04-21 18:53 | -30.27486 | -172.41166 | 35014 ft | 532 kts | 44° |
| 2026-04-21 18:54 | -30.23196 | -172.34277 | 35007 ft | 531 kts | 45° |
| 2026-04-21 18:54 | -30.18877 | -172.27352 | 35015 ft | 531 kts | 45° |
| 2026-04-21 18:55 | -30.15259 | -172.21563 | 34999 ft | 530 kts | 45° |
| 2026-04-21 18:55 | -30.10240 | -172.13545 | 35016 ft | 530 kts | 45° |
| 2026-04-21 18:56 | -30.05918 | -172.06653 | 35015 ft | 530 kts | 45° |
| 2026-04-21 18:56 | -30.01591 | -171.99765 | 35019 ft | 530 kts | 45° |
| 2026-04-21 18:57 | -29.97259 | -171.92881 | 35019 ft | 530 kts | 45° |
| 2026-04-21 18:57 | -29.92920 | -171.85996 | 35019 ft | 530 kts | 44° |
| 2026-04-21 18:58 | -29.88582 | -171.79124 | 35019 ft | 530 kts | 44° |
| 2026-04-21 18:58 | -29.84238 | -171.72256 | 34998 ft | 530 kts | 45° |
| 2026-04-21 18:59 | -29.79892 | -171.65396 | 35005 ft | 530 kts | 45° |
| 2026-04-21 18:59 | -29.75538 | -171.58535 | 35014 ft | 531 kts | 45° |
| 2026-04-21 19:00 | -29.71182 | -171.51681 | 35021 ft | 531 kts | 45° |
| 2026-04-21 19:00 | -29.66815 | -171.44823 | 35023 ft | 531 kts | 45° |
| 2026-04-21 19:01 | -29.62444 | -171.37969 | 35025 ft | 532 kts | 45° |
| 2026-04-21 19:01 | -29.58064 | -171.31113 | 35021 ft | 532 kts | 45° |
| 2026-04-21 19:02 | -29.53684 | -171.24267 | 34989 ft | 532 kts | 45° |
| 2026-04-21 19:02 | -29.49311 | -171.17442 | 35015 ft | 530 kts | 45° |
| 2026-04-21 19:03 | -29.44951 | -171.10650 | 35013 ft | 528 kts | 45° |
| 2026-04-21 19:03 | -29.40597 | -171.03879 | 35019 ft | 527 kts | 45° |
| 2026-04-21 19:04 | -29.36250 | -170.97132 | 35027 ft | 526 kts | 45° |
| 2026-04-21 19:04 | -29.31904 | -170.90396 | 35006 ft | 525 kts | 45° |
| 2026-04-21 19:05 | -29.27557 | -170.83670 | 35017 ft | 525 kts | 45° |
| 2026-04-21 19:05 | -29.23204 | -170.76947 | 35023 ft | 526 kts | 45° |
| 2026-04-21 19:06 | -29.18843 | -170.70221 | 35012 ft | 526 kts | 45° |
| 2026-04-21 19:06 | -29.14472 | -170.63491 | 35023 ft | 527 kts | 45° |
| 2026-04-21 19:07 | -29.10095 | -170.56761 | 35023 ft | 528 kts | 45° |
| 2026-04-21 19:07 | -29.05706 | -170.50025 | 35013 ft | 528 kts | 45° |
| 2026-04-21 19:08 | -29.01310 | -170.43287 | 35027 ft | 529 kts | 45° |
| 2026-04-21 19:08 | -28.96905 | -170.36547 | 35025 ft | 530 kts | 45° |
| 2026-04-21 19:09 | -28.92489 | -170.29801 | 35030 ft | 530 kts | 45° |
| 2026-04-21 19:09 | -28.88073 | -170.23066 | 35019 ft | 530 kts | 46° |
| 2026-04-21 19:10 | -28.83659 | -170.16343 | 35006 ft | 529 kts | 46° |
| 2026-04-21 19:10 | -28.79250 | -170.09638 | 35025 ft | 528 kts | 46° |
| 2026-04-21 19:11 | -28.74870 | -170.02989 | 35025 ft | 527 kts | 46° |
| 2026-04-21 19:11 | -28.70437 | -169.96271 | 35038 ft | 527 kts | 46° |
| 2026-04-21 19:12 | -28.66772 | -169.90730 | 35041 ft | 527 kts | 46° |
| 2026-04-21 19:12 | -28.61648 | -169.82990 | 35048 ft | 527 kts | 46° |
| 2026-04-21 19:13 | -28.57235 | -169.76334 | 35040 ft | 527 kts | 46° |
| 2026-04-21 19:13 | -28.52827 | -169.69692 | 35038 ft | 525 kts | 46° |
| 2026-04-21 19:14 | -28.48429 | -169.63076 | 35042 ft | 524 kts | 46° |
| 2026-04-21 19:14 | -28.44030 | -169.56470 | 35044 ft | 523 kts | 46° |
| 2026-04-21 19:15 | -28.40380 | -169.50998 | 35044 ft | 523 kts | 46° |
| 2026-04-21 19:15 | -28.35983 | -169.44415 | 35049 ft | 523 kts | 46° |
| 2026-04-21 19:16 | -28.31586 | -169.37842 | 35043 ft | 523 kts | 46° |
| 2026-04-21 19:16 | -28.27185 | -169.31273 | 35054 ft | 523 kts | 46° |
| 2026-04-21 19:17 | -28.20571 | -169.21421 | 35283 ft | 523 kts | 46° |
| 2026-04-21 19:17 | -28.18366 | -169.18141 | 35401 ft | 524 kts | 46° |
| 2026-04-21 19:17 | -28.16154 | -169.14853 | 35524 ft | 526 kts | 46° |
| 2026-04-21 19:18 | -28.13936 | -169.11560 | 35641 ft | 527 kts | 46° |
| 2026-04-21 19:18 | -28.11709 | -169.08256 | 35764 ft | 528 kts | 46° |
| 2026-04-21 19:18 | -28.09476 | -169.04945 | 35868 ft | 529 kts | 47° |
| 2026-04-21 19:18 | -28.07235 | -169.01621 | 35984 ft | 530 kts | 47° |
| 2026-04-21 19:19 | -28.04996 | -168.98307 | 36109 ft | 531 kts | 47° |
| 2026-04-21 19:19 | -28.02748 | -168.94981 | 36227 ft | 532 kts | 47° |
| 2026-04-21 19:19 | -28.00499 | -168.91657 | 36349 ft | 532 kts | 47° |
| 2026-04-21 19:19 | -27.98251 | -168.88335 | 36469 ft | 532 kts | 47° |
| 2026-04-21 19:20 | -27.96001 | -168.85013 | 36590 ft | 532 kts | 47° |
| 2026-04-21 19:20 | -27.93749 | -168.81690 | 36710 ft | 532 kts | 47° |
| 2026-04-21 19:20 | -27.91497 | -168.78370 | 36832 ft | 532 kts | 47° |
| 2026-04-21 19:20 | -27.89247 | -168.75057 | 36946 ft | 530 kts | 47° |
| 2026-04-21 19:21 | -27.84797 | -168.68503 | 37028 ft | 522 kts | 47° |
| 2026-04-21 19:21 | -27.80387 | -168.62027 | 37061 ft | 520 kts | 47° |
| 2026-04-21 19:22 | -27.76001 | -168.55599 | 37075 ft | 520 kts | 47° |
| 2026-04-21 19:22 | -27.71553 | -168.49089 | 37067 ft | 520 kts | 47° |
| 2026-04-21 19:23 | -27.67129 | -168.42620 | 37071 ft | 521 kts | 47° |
| 2026-04-21 19:23 | -27.62700 | -168.36153 | 37077 ft | 521 kts | 47° |
| 2026-04-21 19:24 | -27.58265 | -168.29687 | 37069 ft | 521 kts | 47° |
| 2026-04-21 19:24 | -27.53829 | -168.23229 | 37079 ft | 521 kts | 47° |
| 2026-04-21 19:25 | -27.49394 | -168.16782 | 37073 ft | 520 kts | 47° |
| 2026-04-21 19:25 | -27.44996 | -168.10398 | 37076 ft | 519 kts | 47° |
| 2026-04-21 19:26 | -27.40573 | -168.03987 | 37076 ft | 518 kts | 47° |
| 2026-04-21 19:26 | -27.36149 | -167.97585 | 37075 ft | 518 kts | 47° |
| 2026-04-21 19:27 | -27.31729 | -167.91199 | 37074 ft | 517 kts | 47° |
| 2026-04-21 19:27 | -27.27308 | -167.84820 | 37086 ft | 517 kts | 47° |
| 2026-04-21 19:28 | -27.22887 | -167.78450 | 37084 ft | 517 kts | 47° |
| 2026-04-21 19:28 | -27.18460 | -167.72080 | 37084 ft | 517 kts | 47° |
| 2026-04-21 19:29 | -27.14027 | -167.65711 | 37090 ft | 518 kts | 47° |
| 2026-04-21 19:29 | -27.09591 | -167.59346 | 37091 ft | 518 kts | 47° |
| 2026-04-21 19:30 | -27.05146 | -167.52979 | 37090 ft | 518 kts | 47° |
| 2026-04-21 19:30 | -27.00695 | -167.46611 | 37093 ft | 519 kts | 47° |
| 2026-04-21 19:31 | -26.96238 | -167.40244 | 37094 ft | 519 kts | 47° |
| 2026-04-21 19:31 | -26.91771 | -167.33871 | 37092 ft | 520 kts | 47° |
| 2026-04-21 19:32 | -26.87303 | -167.27507 | 37088 ft | 519 kts | 48° |
| 2026-04-21 19:32 | -26.82842 | -167.21163 | 37089 ft | 519 kts | 48° |
| 2026-04-21 19:33 | -26.78378 | -167.14821 | 37094 ft | 518 kts | 48° |
| 2026-04-21 19:33 | -26.73911 | -167.08485 | 37096 ft | 518 kts | 48° |
| 2026-04-21 19:34 | -26.69446 | -167.02162 | 37098 ft | 518 kts | 48° |
| 2026-04-21 19:34 | -26.65007 | -166.95882 | 37099 ft | 518 kts | 48° |
| 2026-04-21 19:35 | -26.58301 | -166.86416 | 37101 ft | 518 kts | 48° |
| 2026-04-21 19:36 | -26.53822 | -166.80104 | 37095 ft | 518 kts | 49° |
| 2026-04-21 19:36 | -26.49345 | -166.73801 | 37102 ft | 518 kts | 49° |
| 2026-04-21 19:37 | -26.44869 | -166.67510 | 37109 ft | 517 kts | 49° |
| 2026-04-21 19:37 | -26.40394 | -166.61229 | 37105 ft | 517 kts | 49° |
| 2026-04-21 19:38 | -26.35916 | -166.54953 | 37103 ft | 517 kts | 49° |
| 2026-04-21 19:38 | -26.32164 | -166.49701 | 37102 ft | 517 kts | 49° |
| 2026-04-21 19:39 | -26.26954 | -166.42419 | 37108 ft | 517 kts | 49° |
| 2026-04-21 19:39 | -26.22468 | -166.36157 | 37110 ft | 517 kts | 49° |
| 2026-04-21 19:40 | -26.17975 | -166.29896 | 37106 ft | 517 kts | 49° |
| 2026-04-21 19:40 | -26.13483 | -166.23642 | 37110 ft | 517 kts | 49° |
| 2026-04-21 19:41 | -26.08989 | -166.17395 | 37108 ft | 517 kts | 49° |
| 2026-04-21 19:41 | -26.04492 | -166.11153 | 37105 ft | 517 kts | 49° |
| 2026-04-21 19:42 | -25.99991 | -166.04914 | 37116 ft | 517 kts | 49° |
| 2026-04-21 19:42 | -25.95486 | -165.98677 | 37115 ft | 518 kts | 49° |
| 2026-04-21 19:43 | -25.90973 | -165.92437 | 37112 ft | 518 kts | 49° |
| 2026-04-21 19:43 | -25.86486 | -165.86242 | 37113 ft | 518 kts | 50° |
| 2026-04-21 19:44 | -25.81966 | -165.80010 | 37115 ft | 519 kts | 49° |
| 2026-04-21 19:44 | -25.77434 | -165.73772 | 37118 ft | 519 kts | 50° |
| 2026-04-21 19:45 | -25.72896 | -165.67531 | 37121 ft | 520 kts | 50° |
| 2026-04-21 19:45 | -25.68349 | -165.61285 | 37117 ft | 521 kts | 50° |
| 2026-04-21 19:46 | -25.63793 | -165.55038 | 37117 ft | 521 kts | 50° |
| 2026-04-21 19:46 | -25.59234 | -165.48794 | 37122 ft | 521 kts | 50° |
| 2026-04-21 19:47 | -25.54671 | -165.42553 | 37121 ft | 521 kts | 50° |
| 2026-04-21 19:47 | -25.50102 | -165.36313 | 37115 ft | 521 kts | 50° |
| 2026-04-21 19:48 | -25.45542 | -165.30092 | 37119 ft | 520 kts | 50° |
| 2026-04-21 19:48 | -25.40985 | -165.23884 | 37119 ft | 519 kts | 50° |
| 2026-04-21 19:49 | -25.36432 | -165.17690 | 37122 ft | 519 kts | 50° |
| 2026-04-21 19:49 | -25.31881 | -165.11507 | 37122 ft | 518 kts | 50° |
| 2026-04-21 19:50 | -25.28101 | -165.06376 | 37133 ft | 518 kts | 50° |
| 2026-04-21 19:50 | -25.22783 | -164.99165 | 37128 ft | 518 kts | 50° |
| 2026-04-21 19:51 | -25.18246 | -164.92986 | 37135 ft | 518 kts | 50° |
| 2026-04-21 19:51 | -25.13715 | -164.86799 | 37120 ft | 518 kts | 50° |
| 2026-04-21 19:52 | -25.09177 | -164.80611 | 37134 ft | 518 kts | 50° |
| 2026-04-21 19:52 | -25.04637 | -164.74433 | 37123 ft | 519 kts | 50° |
| 2026-04-21 19:53 | -25.00092 | -164.68259 | 37116 ft | 519 kts | 50° |
| 2026-04-21 19:53 | -24.95542 | -164.62085 | 37126 ft | 519 kts | 50° |
| 2026-04-21 19:54 | -24.90988 | -164.55914 | 37119 ft | 519 kts | 50° |
| 2026-04-21 19:54 | -24.86431 | -164.49748 | 37128 ft | 519 kts | 50° |
| 2026-04-21 19:55 | -24.81874 | -164.43587 | 37113 ft | 519 kts | 50° |
| 2026-04-21 19:55 | -24.77319 | -164.37439 | 37123 ft | 518 kts | 50° |
| 2026-04-21 19:56 | -24.72769 | -164.31306 | 37128 ft | 517 kts | 50° |
| 2026-04-21 19:56 | -24.68224 | -164.25186 | 37131 ft | 517 kts | 50° |
| 2026-04-21 19:57 | -24.63674 | -164.19068 | 37118 ft | 516 kts | 50° |
| 2026-04-21 19:57 | -24.59158 | -164.13003 | 37128 ft | 516 kts | 50° |
| 2026-04-21 19:58 | -24.54609 | -164.06901 | 37120 ft | 516 kts | 50° |
| 2026-04-21 19:58 | -24.50052 | -164.00797 | 37132 ft | 517 kts | 50° |
| 2026-04-21 19:59 | -24.45491 | -163.94695 | 37114 ft | 517 kts | 51° |
| 2026-04-21 19:59 | -24.40929 | -163.88600 | 37134 ft | 517 kts | 51° |
| 2026-04-21 20:00 | -24.36362 | -163.82504 | 37130 ft | 517 kts | 51° |
| 2026-04-21 20:00 | -24.31790 | -163.76410 | 37136 ft | 517 kts | 51° |
| 2026-04-21 20:01 | -24.27213 | -163.70318 | 37132 ft | 518 kts | 51° |
| 2026-04-21 20:01 | -24.22632 | -163.64227 | 37119 ft | 518 kts | 51° |
| 2026-04-21 20:02 | -24.18823 | -163.59170 | 37129 ft | 518 kts | 51° |
| 2026-04-21 20:02 | -24.14242 | -163.53093 | 37122 ft | 518 kts | 51° |
| 2026-04-21 20:03 | -24.09655 | -163.47015 | 37129 ft | 518 kts | 51° |
| 2026-04-21 20:03 | -24.05068 | -163.40946 | 37125 ft | 517 kts | 51° |
| 2026-04-21 20:04 | -24.00482 | -163.34886 | 37126 ft | 517 kts | 51° |
| 2026-04-21 20:04 | -23.95900 | -163.28838 | 37124 ft | 517 kts | 51° |
| 2026-04-21 20:05 | -23.91310 | -163.22788 | 37128 ft | 517 kts | 51° |
| 2026-04-21 20:05 | -23.86720 | -163.16743 | 37126 ft | 517 kts | 51° |
| 2026-04-21 20:06 | -23.82123 | -163.10698 | 37119 ft | 517 kts | 51° |
| 2026-04-21 20:06 | -23.77521 | -163.04652 | 37122 ft | 518 kts | 51° |
| 2026-04-21 20:07 | -23.72942 | -162.98646 | 37128 ft | 518 kts | 51° |
| 2026-04-21 20:07 | -23.68330 | -162.92603 | 37130 ft | 518 kts | 51° |
| 2026-04-21 20:08 | -23.63718 | -162.86567 | 37116 ft | 518 kts | 51° |
| 2026-04-21 20:08 | -23.59101 | -162.80532 | 37112 ft | 518 kts | 51° |
| 2026-04-21 20:09 | -23.54485 | -162.74505 | 37117 ft | 518 kts | 51° |
| 2026-04-21 20:09 | -23.49868 | -162.68485 | 37120 ft | 518 kts | 51° |
| 2026-04-21 20:10 | -23.45250 | -162.62471 | 37110 ft | 517 kts | 51° |
| 2026-04-21 20:10 | -23.40628 | -162.56458 | 37117 ft | 517 kts | 51° |
| 2026-04-21 20:11 | -23.36009 | -162.50457 | 37115 ft | 517 kts | 51° |
| 2026-04-21 20:11 | -23.31419 | -162.44499 | 37114 ft | 517 kts | 51° |
| 2026-04-21 20:12 | -23.26771 | -162.38475 | 37114 ft | 516 kts | 51° |
| 2026-04-21 20:12 | -23.22185 | -162.32537 | 37116 ft | 516 kts | 51° |
| 2026-04-21 20:13 | -23.17570 | -162.26569 | 37118 ft | 516 kts | 51° |
| 2026-04-21 20:13 | -23.12948 | -162.20600 | 37117 ft | 516 kts | 52° |
| 2026-04-21 20:14 | -23.08324 | -162.14634 | 37120 ft | 516 kts | 52° |
| 2026-04-21 20:14 | -23.03695 | -162.08669 | 37119 ft | 516 kts | 52° |
| 2026-04-21 20:15 | -22.99063 | -162.02708 | 37116 ft | 516 kts | 52° |
| 2026-04-21 20:15 | -22.94436 | -161.96758 | 37114 ft | 516 kts | 52° |
| 2026-04-21 20:16 | -22.89805 | -161.90813 | 37123 ft | 516 kts | 52° |
| 2026-04-21 20:16 | -22.85173 | -161.84872 | 37117 ft | 516 kts | 52° |
| 2026-04-21 20:17 | -22.80536 | -161.78930 | 37112 ft | 516 kts | 52° |
| 2026-04-21 20:17 | -22.75899 | -161.72996 | 37116 ft | 516 kts | 52° |
| 2026-04-21 20:18 | -22.72043 | -161.68067 | 37109 ft | 516 kts | 52° |
| 2026-04-21 20:18 | -22.66647 | -161.61177 | 37118 ft | 516 kts | 52° |
| 2026-04-21 20:19 | -22.61973 | -161.55217 | 37113 ft | 516 kts | 52° |
| 2026-04-21 20:19 | -22.57326 | -161.49297 | 37109 ft | 516 kts | 52° |
| 2026-04-21 20:20 | -22.52708 | -161.43420 | 37012 ft | 518 kts | 52° |
| 2026-04-21 20:20 | -22.50352 | -161.40423 | 36244 ft | 527 kts | 52° |
| 2026-04-21 20:20 | -22.47980 | -161.37408 | 35472 ft | 527 kts | 52° |
| 2026-04-21 20:20 | -22.45598 | -161.34382 | 34525 ft | 530 kts | 51° |
| 2026-04-21 20:21 | -22.43208 | -161.31350 | 33599 ft | 530 kts | 51° |
| 2026-04-21 20:21 | -22.40813 | -161.28313 | 32590 ft | 531 kts | 51° |
| 2026-04-21 20:21 | -22.38415 | -161.25275 | 31634 ft | 531 kts | 50° |
| 2026-04-21 20:21 | -22.36021 | -161.22242 | 30676 ft | 531 kts | 50° |
| 2026-04-21 20:22 | -22.33636 | -161.19223 | 30071 ft | 523 kts | 50° |
| 2026-04-21 20:22 | -22.28977 | -161.13332 | 28741 ft | 509 kts | 50° |
| 2026-04-21 20:22 | -22.26693 | -161.10446 | 28084 ft | 503 kts | 50° |
| 2026-04-21 20:23 | -22.24432 | -161.07589 | 27427 ft | 498 kts | 50° |
| 2026-04-21 20:23 | -22.22191 | -161.04759 | 26796 ft | 493 kts | 50° |
| 2026-04-21 20:23 | -22.19971 | -161.01956 | 26177 ft | 489 kts | 50° |
| 2026-04-21 20:23 | -22.17775 | -160.99187 | 25564 ft | 484 kts | 50° |
| 2026-04-21 20:24 | -22.15592 | -160.96435 | 24942 ft | 481 kts | 50° |
| 2026-04-21 20:24 | -22.13421 | -160.93698 | 24338 ft | 478 kts | 50° |
| 2026-04-21 20:24 | -22.11270 | -160.90989 | 23721 ft | 475 kts | 50° |
| 2026-04-21 20:24 | -22.09127 | -160.88292 | 23026 ft | 472 kts | 50° |
| 2026-04-21 20:25 | -22.07004 | -160.85621 | 22399 ft | 467 kts | 50° |
| 2026-04-21 20:25 | -22.04899 | -160.82973 | 21805 ft | 463 kts | 50° |
| 2026-04-21 20:25 | -22.02814 | -160.80351 | 21210 ft | 459 kts | 50° |
| 2026-04-21 20:25 | -22.00744 | -160.77750 | 20629 ft | 455 kts | 50° |
| 2026-04-21 20:26 | -21.98692 | -160.75174 | 20050 ft | 451 kts | 50° |
| 2026-04-21 20:26 | -21.96592 | -160.72682 | 19458 ft | 447 kts | 45° |
| 2026-04-21 20:26 | -21.94272 | -160.70464 | 18892 ft | 445 kts | 40° |
| 2026-04-21 20:26 | -21.91847 | -160.68399 | 18300 ft | 443 kts | 38° |
| 2026-04-21 20:27 | -21.89406 | -160.66387 | 17646 ft | 441 kts | 38° |
| 2026-04-21 20:27 | -21.86987 | -160.64381 | 17066 ft | 437 kts | 38° |
| 2026-04-21 20:27 | -21.84621 | -160.62385 | 16481 ft | 425 kts | 39° |
| 2026-04-21 20:27 | -21.82321 | -160.60410 | 15936 ft | 422 kts | 39° |
| 2026-04-21 20:28 | -21.80044 | -160.58434 | 15385 ft | 420 kts | 39° |
| 2026-04-21 20:28 | -21.77782 | -160.56460 | 14835 ft | 417 kts | 39° |
| 2026-04-21 20:28 | -21.75535 | -160.54495 | 14270 ft | 416 kts | 39° |
| 2026-04-21 20:28 | -21.73308 | -160.52546 | 13679 ft | 409 kts | 39° |
| 2026-04-21 20:29 | -21.71118 | -160.50632 | 13105 ft | 403 kts | 39° |
| 2026-04-21 20:29 | -21.68951 | -160.48739 | 12558 ft | 401 kts | 39° |
| 2026-04-21 20:29 | -21.66793 | -160.46856 | 12015 ft | 395 kts | 39° |
| 2026-04-21 20:29 | -21.64705 | -160.45033 | 11485 ft | 390 kts | 39° |
| 2026-04-21 20:30 | -21.62605 | -160.43202 | 10979 ft | 388 kts | 39° |
| 2026-04-21 20:30 | -21.60515 | -160.41380 | 10825 ft | 376 kts | 39° |
| 2026-04-21 20:30 | -21.58539 | -160.39658 | 10636 ft | 362 kts | 39° |
| 2026-04-21 20:30 | -21.56673 | -160.38034 | 10457 ft | 330 kts | 39° |
| 2026-04-21 20:31 | -21.54967 | -160.36548 | 10316 ft | 304 kts | 39° |
| 2026-04-21 20:31 | -21.53350 | -160.35141 | 10217 ft | 294 kts | 39° |
| 2026-04-21 20:31 | -21.51784 | -160.33778 | 10097 ft | 285 kts | 39° |
| 2026-04-21 20:31 | -21.50257 | -160.32449 | 9907 ft | 282 kts | 39° |
| 2026-04-21 20:32 | -21.48728 | -160.31119 | 9578 ft | 283 kts | 39° |
| 2026-04-21 20:32 | -21.47204 | -160.29793 | 9272 ft | 282 kts | 39° |
| 2026-04-21 20:32 | -21.45679 | -160.28468 | 8956 ft | 281 kts | 39° |
| 2026-04-21 20:32 | -21.44158 | -160.27147 | 8546 ft | 284 kts | 39° |
| 2026-04-21 20:33 | -21.42637 | -160.25826 | 8337 ft | 278 kts | 39° |
| 2026-04-21 20:33 | -21.41127 | -160.24516 | 7914 ft | 283 kts | 39° |
| 2026-04-21 20:33 | -21.39604 | -160.23195 | 7655 ft | 279 kts | 40° |
| 2026-04-21 20:33 | -21.38131 | -160.21918 | 7439 ft | 267 kts | 40° |
| 2026-04-21 20:34 | -21.36706 | -160.20682 | 7171 ft | 263 kts | 40° |
| 2026-04-21 20:34 | -21.35287 | -160.19451 | 6672 ft | 261 kts | 40° |
| 2026-04-21 20:34 | -21.33880 | -160.18231 | 6312 ft | 257 kts | 40° |
| 2026-04-21 20:34 | -21.32495 | -160.17031 | 6031 ft | 255 kts | 40° |
| 2026-04-21 20:35 | -21.31122 | -160.15841 | 5741 ft | 253 kts | 40° |
| 2026-04-21 20:35 | -21.29762 | -160.14662 | 5438 ft | 251 kts | 40° |
| 2026-04-21 20:35 | -21.28413 | -160.13493 | 5157 ft | 247 kts | 40° |
| 2026-04-21 20:35 | -21.27096 | -160.12353 | 4861 ft | 238 kts | 41° |
| 2026-04-21 20:36 | -21.25836 | -160.11262 | 4592 ft | 230 kts | 42° |
| 2026-04-21 20:36 | -21.24612 | -160.10202 | 4395 ft | 223 kts | 41° |
| 2026-04-21 20:36 | -21.23414 | -160.09166 | 4106 ft | 221 kts | 43° |
| 2026-04-21 20:36 | -21.22229 | -160.08140 | 3855 ft | 217 kts | 41° |
| 2026-04-21 20:37 | -21.21073 | -160.07135 | 3691 ft | 208 kts | 44° |
| 2026-04-21 20:37 | -21.20351 | -160.05942 | 3568 ft | 180 kts | 79° |
| 2026-04-21 20:37 | -21.20238 | -160.04675 | 3485 ft | 168 kts | 91° |
| 2026-04-21 20:37 | -21.20233 | -160.03424 | 3433 ft | 170 kts | 92° |
| 2026-04-21 20:38 | -21.20234 | -160.02185 | 3372 ft | 168 kts | 91° |
| 2026-04-21 20:38 | -21.20236 | -160.00925 | 3307 ft | 169 kts | 92° |
| 2026-04-21 20:38 | -21.20238 | -159.99678 | 3195 ft | 167 kts | 91° |
| 2026-04-21 20:38 | -21.20241 | -159.98438 | 3024 ft | 163 kts | 92° |
| 2026-04-21 20:39 | -21.20244 | -159.97240 | 2857 ft | 162 kts | 92° |
| 2026-04-21 20:39 | -21.20247 | -159.96025 | 2642 ft | 163 kts | 92° |
| 2026-04-21 20:39 | -21.20250 | -159.94814 | 2434 ft | 162 kts | 92° |
| 2026-04-21 20:39 | -21.20252 | -159.93627 | 2222 ft | 156 kts | 92° |
| 2026-04-21 20:40 | -21.20251 | -159.92520 | 2012 ft | 141 kts | 92° |
| 2026-04-21 20:40 | -21.20254 | -159.91469 | 1869 ft | 143 kts | 92° |
| 2026-04-21 20:40 | -21.20263 | -159.90426 | 1689 ft | 141 kts | 92° |
| 2026-04-21 20:40 | -21.20272 | -159.89364 | 1432 ft | 141 kts | 93° |
| 2026-04-21 20:41 | -21.20262 | -159.88318 | 1250 ft | 137 kts | 92° |
| 2026-04-21 20:41 | -21.20249 | -159.87318 | 1128 ft | 133 kts | 94° |
| 2026-04-21 20:41 | -21.20255 | -159.86317 | 959 ft | 135 kts | 92° |
| 2026-04-21 20:41 | -21.20257 | -159.85273 | 718 ft | 141 kts | 93° |
| 2026-04-21 20:42 | -21.20248 | -159.84225 | 535 ft | 143 kts | 92° |
| 2026-04-21 20:42 | -21.20253 | -159.83114 | 328 ft | 151 kts | 90° |
| 2026-04-21 20:42 | -21.20254 | -159.82023 | 139 ft | 143 kts | 91° |
| 2026-04-21 20:42 | -21.20257 | -159.80994 | 34 ft | 130 kts | 90° |
| 2026-04-21 20:43 | -21.20257 | -159.80240 | 30 ft | 68 kts | 90° |
| 2026-04-21 20:43 | -21.20258 | -159.79893 | 33 ft | 39 kts | 90° |
| 2026-04-21 20:43 | -21.20258 | -159.79650 | 33 ft | 18 kts | 89° |
| 2026-04-21 20:43 | -21.20283 | -159.79547 | 33 ft | 11 kts | 138° |
| 2026-04-21 20:44 | -21.20296 | -159.79482 | 34 ft | 8 kts | 51° |
| 2026-04-21 20:44 | -21.20257 | -159.79496 | 33 ft | 7 kts | 285° |
| 2026-04-21 20:44 | -21.20258 | -159.79555 | 33 ft | 9 kts | 270° |
| 2026-04-21 20:44 | -21.20257 | -159.79624 | 33 ft | 10 kts | 270° |
| 2026-04-21 20:45 | -21.20257 | -159.79700 | 33 ft | 11 kts | 270° |
| 2026-04-21 20:45 | -21.20257 | -159.79779 | 33 ft | 11 kts | 271° |
| 2026-04-21 20:45 | -21.20217 | -159.79832 | 33 ft | 11 kts | 353° |
| 2026-04-21 20:45 | -21.20153 | -159.79833 | 32 ft | 8 kts | 0° |
| 2026-04-21 20:46 | -21.20110 | -159.79858 | 31 ft | 6 kts | 312° |
| 2026-04-21 20:46 | -21.20082 | -159.79877 | 31 ft | 3 kts | 5° |
| 2026-04-21 20:46 | -21.20071 | -159.79860 | 31 ft | 2 kts | 83° |
| 2026-04-21 20:46 | -21.20077 | -159.79851 | 31 ft | 1 kts | 126° |
| 2026-04-21 20:47 | -21.20080 | -159.79848 | 31 ft | 0 kts | 139° |
| 2026-04-21 20:48 | -21.20082 | -159.79834 | 31 ft | 2 kts | 89° |
| 2026-04-21 20:48 | -21.20074 | -159.79819 | 31 ft | 3 kts | 63° |
| 2026-04-21 20:48 | -21.20073 | -159.79807 | 31 ft | 0 kts | 86° |